createdAt,value
2023-04-21T00:01:34.759Z,11.08
2023-04-21T00:04:03.283Z,11.10
2023-04-21T00:06:31.395Z,11.14
2023-04-21T00:08:59.239Z,11.04
2023-04-21T00:11:27.014Z,11.00
2023-04-21T00:13:56.219Z,10.91
2023-04-21T00:16:24.102Z,10.87
2023-04-21T00:18:51.837Z,10.81
2023-04-21T00:21:19.597Z,10.84
2023-04-21T00:23:47.498Z,10.78
2023-04-21T00:26:15.477Z,10.84
2023-04-21T00:28:44.845Z,10.80
2023-04-21T00:31:12.642Z,10.89
2023-04-21T00:33:40.555Z,10.85
2023-04-21T00:36:08.431Z,10.93
2023-04-21T00:38:36.438Z,10.99
2023-04-21T00:41:04.421Z,11.00
2023-04-21T00:43:32.191Z,11.05
2023-04-21T00:45:59.966Z,11.07
2023-04-21T00:48:27.662Z,11.08
2023-04-21T00:50:55.486Z,11.01
2023-04-21T00:53:23.407Z,11.06
2023-04-21T00:55:51.942Z,11.08
2023-04-21T00:58:19.758Z,11.06
2023-04-21T01:00:47.680Z,11.07
2023-04-21T01:03:16.538Z,11.07
2023-04-21T01:05:44.550Z,11.03
2023-04-21T01:08:13.931Z,10.94
2023-04-21T01:10:42.364Z,10.89
2023-04-21T01:13:10.083Z,10.93
2023-04-21T01:15:37.892Z,10.91
2023-04-21T01:18:06.314Z,10.89
2023-04-21T01:20:34.574Z,10.83
2023-04-21T01:23:02.400Z,10.71
2023-04-21T01:25:30.271Z,10.56
2023-04-21T01:27:58.043Z,10.44
2023-04-21T01:30:25.841Z,10.38
2023-04-21T01:32:53.609Z,10.38
2023-04-21T01:35:21.442Z,10.45
2023-04-21T01:37:49.237Z,10.48
2023-04-21T01:40:17.046Z,10.49
2023-04-21T01:42:45.441Z,10.55
2023-04-21T01:45:14.055Z,10.59
2023-04-21T01:47:41.804Z,10.57
2023-04-21T01:50:10.140Z,10.64
2023-04-21T01:52:37.958Z,10.67
2023-04-21T01:55:06.350Z,10.63
2023-04-21T01:57:35.008Z,10.72
2023-04-21T02:00:04.756Z,10.71
2023-04-21T02:02:43.042Z,10.73
2023-04-21T02:05:13.518Z,10.75
2023-04-21T02:07:42.421Z,10.76
2023-04-21T02:10:11.424Z,10.76
2023-04-21T02:12:39.169Z,10.77
2023-04-21T02:15:07.947Z,10.76
2023-04-21T02:17:36.511Z,10.75
2023-04-21T02:20:04.735Z,10.73
2023-04-21T02:22:32.546Z,10.71
2023-04-21T02:25:00.311Z,10.70
2023-04-21T02:27:28.284Z,10.71
2023-04-21T02:29:56.067Z,10.70
2023-04-21T02:32:25.969Z,10.73
2023-04-21T02:34:54.217Z,10.71
2023-04-21T02:37:22.286Z,10.71
2023-04-21T02:39:50.102Z,10.71
2023-04-21T02:42:17.917Z,10.70
2023-04-21T02:44:45.968Z,10.61
2023-04-21T02:47:16.771Z,10.67
2023-04-21T02:49:44.638Z,10.63
2023-04-21T02:52:13.425Z,10.62
2023-04-21T02:54:41.106Z,10.56
2023-04-21T02:57:09.925Z,10.58
2023-04-21T02:59:37.631Z,10.58
2023-04-21T03:02:05.412Z,10.55
2023-04-21T03:04:34.184Z,10.55
2023-04-21T03:07:02.052Z,10.53
2023-04-21T03:09:29.826Z,10.46
2023-04-21T03:11:57.524Z,10.44
2023-04-21T03:14:25.415Z,10.44
2023-04-21T03:16:53.124Z,10.40
2023-04-21T03:19:21.162Z,10.41
2023-04-21T03:21:49.148Z,10.37
2023-04-21T03:24:17.245Z,10.35
2023-04-21T03:26:45.122Z,10.39
2023-04-21T03:29:12.908Z,10.35
2023-04-21T03:31:40.845Z,10.31
2023-04-21T03:34:08.540Z,10.33
2023-04-21T03:36:36.388Z,10.33
2023-04-21T03:39:20.576Z,10.30
2023-04-21T03:41:50.237Z,10.26
2023-04-21T03:44:17.966Z,10.24
2023-04-21T03:46:46.914Z,10.23
2023-04-21T03:49:14.660Z,10.24
2023-04-21T03:51:42.442Z,10.25
2023-04-21T03:54:10.235Z,10.20
2023-04-21T03:56:37.983Z,10.22
2023-04-21T03:59:06.160Z,10.24
2023-04-21T04:01:36.880Z,10.27
2023-04-21T04:04:04.915Z,10.20
2023-04-21T04:06:33.197Z,10.22
2023-04-21T04:09:04.337Z,10.21
2023-04-21T04:11:32.946Z,10.17
2023-04-21T04:14:00.839Z,10.12
2023-04-21T04:16:29.265Z,10.11
2023-04-21T04:18:57.216Z,10.12
2023-04-21T04:21:25.162Z,10.11
2023-04-21T04:23:53.245Z,10.11
2023-04-21T04:26:24.771Z,10.12
2023-04-21T04:28:53.441Z,10.11
2023-04-21T04:31:21.461Z,10.12
2023-04-21T04:33:49.487Z,10.07
2023-04-21T04:36:17.301Z,10.10
2023-04-21T04:38:48.421Z,10.04
2023-04-21T04:41:16.783Z,10.06
2023-04-21T04:43:45.169Z,10.03
2023-04-21T04:46:13.126Z,10.06
2023-04-21T04:48:41.352Z,10.03
2023-04-21T04:51:09.078Z,10.04
2023-04-21T04:53:37.451Z,10.03
2023-04-21T04:56:05.962Z,10.01
2023-04-21T04:58:33.912Z,10.03
2023-04-21T05:01:13.033Z,10.08
2023-04-21T05:03:43.187Z,10.08
2023-04-21T05:06:11.317Z,10.11
2023-04-21T05:08:40.168Z,10.15
2023-04-21T05:11:09.005Z,10.20
2023-04-21T05:13:39.548Z,10.22
2023-04-21T05:16:10.080Z,10.25
2023-04-21T05:18:38.273Z,10.28
2023-04-21T05:21:06.962Z,10.33
2023-04-21T05:23:35.675Z,10.36
2023-04-21T05:26:05.776Z,10.41
2023-04-21T05:28:33.595Z,10.40
2023-04-21T05:31:01.435Z,10.38
2023-04-21T05:33:31.751Z,10.42
2023-04-21T05:35:59.611Z,10.48
2023-04-21T05:38:27.599Z,10.52
2023-04-21T05:40:56.136Z,10.56
2023-04-21T05:43:23.938Z,10.67
2023-04-21T05:45:51.755Z,10.69
2023-04-21T05:48:22.463Z,10.73
2023-04-21T05:50:50.181Z,10.78
2023-04-21T05:53:18.077Z,10.80
2023-04-21T05:55:46.299Z,10.85
2023-04-21T05:58:14.137Z,10.83
2023-04-21T06:00:41.849Z,10.82
2023-04-21T06:03:11.644Z,10.84
2023-04-21T06:05:39.525Z,10.85
2023-04-21T06:08:07.499Z,10.89
2023-04-21T06:10:35.254Z,10.93
2023-04-21T06:13:03.138Z,10.99
2023-04-21T06:15:30.895Z,11.05
2023-04-21T06:18:00.588Z,11.10
2023-04-21T06:20:28.547Z,11.16
2023-04-21T06:22:57.559Z,11.21
2023-04-21T06:25:26.556Z,11.26
2023-04-21T06:27:54.325Z,11.26
2023-04-21T06:30:27.956Z,11.24
2023-04-21T06:32:55.887Z,11.35
2023-04-21T06:35:23.614Z,11.39
2023-04-21T06:37:52.099Z,11.44
2023-04-21T06:40:21.619Z,11.47
2023-04-21T06:42:51.022Z,11.48
2023-04-21T06:45:20.318Z,11.48
2023-04-21T06:47:49.766Z,11.52
2023-04-21T06:50:17.705Z,11.54
2023-04-21T06:52:45.448Z,11.57
2023-04-21T06:55:14.620Z,11.63
2023-04-21T06:57:45.168Z,11.71
2023-04-21T07:00:14.512Z,11.82
2023-04-21T07:02:42.447Z,11.95
2023-04-21T07:05:10.715Z,12.11
2023-04-21T07:07:38.411Z,12.25
2023-04-21T07:10:07.141Z,12.37
2023-04-21T07:12:36.774Z,12.47
2023-04-21T07:15:12.212Z,12.64
2023-04-21T07:17:43.469Z,12.77
2023-04-21T07:20:11.661Z,12.85
2023-04-21T07:22:39.385Z,12.97
2023-04-21T07:25:09.361Z,13.07
2023-04-21T07:27:37.383Z,13.17
2023-04-21T07:30:07.938Z,13.23
2023-04-21T07:32:38.785Z,13.33
2023-04-21T07:35:12.977Z,13.40
2023-04-21T07:37:41.192Z,13.48
2023-04-21T07:40:10.226Z,13.58
2023-04-21T07:42:40.511Z,13.48
2023-04-21T07:45:08.963Z,13.62
2023-04-21T07:47:36.862Z,13.75
2023-04-21T07:50:07.582Z,13.85
2023-04-21T07:52:35.529Z,13.92
2023-04-21T07:55:06.302Z,13.97
2023-04-21T07:57:38.633Z,14.02
2023-04-21T08:00:07.772Z,14.08
2023-04-21T08:02:39.998Z,14.13
2023-04-21T08:05:10.145Z,14.19
2023-04-21T08:07:38.285Z,14.26
2023-04-21T08:10:08.810Z,14.36
2023-04-21T08:12:38.995Z,14.45
2023-04-21T08:15:08.427Z,14.56
2023-04-21T08:17:36.293Z,14.70
2023-04-21T08:20:05.655Z,14.86
2023-04-21T08:22:40.933Z,14.98
2023-04-21T08:25:10.968Z,15.08
2023-04-21T08:27:40.012Z,15.12
2023-04-21T08:30:09.179Z,15.13
2023-04-21T08:32:38.646Z,15.14
2023-04-21T08:35:07.396Z,15.21
2023-04-21T08:37:38.019Z,15.23
2023-04-21T08:40:07.319Z,15.34
2023-04-21T08:42:37.044Z,15.42
2023-04-21T08:45:06.942Z,15.57
2023-04-21T08:47:36.642Z,15.61
2023-04-21T08:50:04.964Z,15.71
2023-04-21T08:52:33.617Z,15.80
2023-04-21T08:55:03.706Z,15.83
2023-04-21T08:57:36.918Z,15.88
2023-04-21T09:00:07.941Z,15.95
2023-04-21T09:03:02.256Z,16.06
2023-04-21T09:05:33.962Z,16.12
2023-04-21T09:08:18.489Z,16.18
2023-04-21T09:10:52.470Z,16.27
2023-04-21T09:13:24.449Z,16.30
2023-04-21T09:15:52.735Z,16.36
2023-04-21T09:18:23.713Z,16.48
2023-04-21T09:21:10.577Z,16.59
2023-04-21T09:23:52.789Z,16.65
2023-04-21T09:26:25.226Z,16.67
2023-04-21T09:28:54.889Z,16.72
2023-04-21T09:31:30.193Z,16.82
2023-04-21T09:34:00.762Z,16.91
2023-04-21T09:36:31.991Z,17.00
2023-04-21T09:41:34.183Z,17.10
2023-04-21T09:44:04.069Z,17.18
2023-04-21T09:46:37.602Z,17.27
2023-04-21T09:49:06.624Z,17.35
2023-04-21T09:54:29.271Z,17.35
2023-04-21T09:57:03.970Z,17.46
2023-04-21T09:59:37.411Z,17.61
2023-04-21T10:02:07.733Z,17.69
2023-04-21T10:04:39.194Z,17.73
2023-04-21T10:07:12.494Z,17.64
2023-04-21T10:09:58.141Z,17.76
2023-04-21T10:12:27.756Z,17.86
2023-04-21T10:14:56.942Z,17.92
2023-04-21T10:17:27.749Z,18.04
2023-04-21T10:19:57.774Z,18.05
2023-04-21T10:22:30.557Z,18.15
2023-04-21T10:25:01.291Z,18.24
2023-04-21T10:27:43.263Z,18.29
2023-04-21T10:30:28.855Z,18.31
2023-04-21T10:33:05.345Z,18.36
2023-04-21T10:35:58.834Z,18.43
2023-04-21T10:38:44.151Z,18.46
2023-04-21T10:41:33.958Z,18.51
2023-04-21T10:44:22.441Z,18.56
2023-04-21T10:46:52.984Z,18.62
2023-04-21T10:49:30.208Z,18.66
2023-04-21T10:52:06.281Z,18.68
2023-04-21T10:54:46.389Z,18.75
2023-04-21T10:57:20.020Z,18.81
2023-04-21T10:59:51.858Z,18.85
2023-04-21T11:02:19.848Z,18.88
2023-04-21T11:04:54.709Z,18.97
2023-04-21T11:07:26.843Z,19.01
2023-04-21T11:10:15.645Z,19.06
2023-04-21T11:12:43.403Z,19.07
2023-04-21T11:15:20.944Z,19.11
2023-04-21T11:17:51.491Z,19.09
2023-04-21T11:20:19.261Z,19.11
2023-04-21T11:22:55.776Z,19.17
2023-04-21T11:25:25.991Z,19.24
2023-04-21T11:27:59.927Z,19.25
2023-04-21T11:30:35.424Z,19.36
2023-04-21T11:33:05.406Z,19.39
2023-04-21T11:35:33.276Z,19.40
2023-04-21T11:38:05.894Z,19.48
2023-04-21T11:40:51.151Z,19.47
2023-04-21T11:43:23.367Z,19.50
2023-04-21T11:45:51.530Z,19.54
2023-04-21T11:48:22.488Z,19.59
2023-04-21T11:50:50.849Z,19.64
2023-04-21T11:53:20.883Z,19.68
2023-04-21T11:55:48.629Z,19.72
2023-04-21T11:58:17.750Z,19.76
2023-04-21T12:00:47.159Z,19.80
2023-04-21T12:03:19.663Z,19.87
2023-04-21T12:05:56.976Z,19.89
2023-04-21T12:08:24.887Z,19.88
2023-04-21T12:10:52.733Z,19.94
2023-04-21T12:13:30.713Z,20.01
2023-04-21T12:16:04.203Z,20.04
2023-04-21T12:18:36.764Z,20.01
2023-04-21T12:21:04.872Z,20.05
2023-04-21T12:23:33.913Z,20.08
2023-04-21T12:26:01.909Z,20.10
2023-04-21T12:28:30.258Z,20.18
2023-04-21T12:30:58.113Z,20.12
2023-04-21T12:33:25.974Z,20.20
2023-04-21T12:35:55.140Z,20.26
2023-04-21T12:38:22.920Z,20.29
2023-04-21T12:40:50.749Z,20.35
2023-04-21T12:43:18.495Z,20.39
2023-04-21T12:45:48.111Z,20.38
2023-04-21T12:48:16.021Z,20.45
2023-04-21T12:50:43.935Z,20.45
2023-04-21T12:53:11.646Z,20.48
2023-04-21T12:55:40.180Z,20.51
2023-04-21T12:58:12.601Z,20.53
2023-04-21T13:00:41.433Z,20.57
2023-04-21T13:03:10.960Z,20.61
2023-04-21T13:05:45.957Z,20.66
2023-04-21T13:08:14.505Z,20.70
2023-04-21T13:10:42.222Z,20.72
2023-04-21T13:13:10.045Z,20.80
2023-04-21T13:15:41.444Z,20.84
2023-04-21T13:18:09.536Z,20.88
2023-04-21T13:20:37.272Z,20.90
2023-04-21T13:23:05.094Z,20.92
2023-04-21T13:25:33.048Z,20.93
2023-04-21T13:28:01.189Z,20.96
2023-04-21T13:30:29.096Z,20.99
2023-04-21T13:32:58.618Z,20.98
2023-04-21T13:35:26.450Z,20.98
2023-04-21T13:37:54.371Z,21.06
2023-04-21T13:40:22.081Z,21.07
2023-04-21T13:42:49.922Z,21.11
2023-04-21T13:45:17.658Z,21.13
2023-04-21T13:47:45.439Z,21.16
2023-04-21T13:50:13.160Z,21.23
2023-04-21T13:52:40.933Z,21.27
2023-04-21T13:55:09.172Z,21.29
2023-04-21T13:57:38.156Z,21.33
2023-04-21T14:00:08.094Z,21.35
2023-04-21T14:02:39.050Z,21.41
2023-04-21T14:05:09.565Z,21.44
2023-04-21T14:07:39.635Z,21.47
2023-04-21T14:10:08.133Z,21.51
2023-04-21T14:12:36.054Z,21.52
2023-04-21T14:15:06.000Z,21.58
2023-04-21T14:17:35.792Z,21.60
2023-04-21T14:20:04.279Z,21.63
2023-04-21T14:22:31.955Z,21.67
2023-04-21T14:25:02.500Z,21.64
2023-04-21T14:27:34.239Z,21.69
2023-04-21T14:30:02.909Z,21.73
2023-04-21T14:32:30.814Z,21.79
2023-04-21T14:35:00.587Z,21.84
2023-04-21T14:37:28.340Z,21.82
2023-04-21T14:39:56.014Z,21.89
2023-04-21T14:42:23.868Z,21.92
2023-04-21T14:44:52.378Z,21.95
2023-04-21T14:47:21.929Z,22.00
2023-04-21T14:49:54.683Z,21.98
2023-04-21T14:52:27.159Z,22.08
2023-04-21T14:54:56.959Z,22.06
2023-04-21T14:57:24.820Z,22.13
2023-04-21T14:59:53.565Z,22.14
2023-04-21T15:02:22.533Z,22.18
2023-04-21T15:04:50.771Z,22.22
2023-04-21T15:07:24.475Z,22.24
2023-04-21T15:09:55.657Z,22.24
2023-04-21T15:12:23.495Z,22.26
2023-04-21T15:14:51.604Z,22.28
2023-04-21T15:17:19.324Z,22.27
2023-04-21T15:19:48.501Z,22.22
2023-04-21T15:22:16.391Z,22.22
2023-04-21T15:24:44.169Z,22.18
2023-04-21T15:27:11.911Z,22.14
2023-04-21T15:29:39.762Z,22.15
2023-04-21T15:32:07.587Z,22.20
2023-04-21T15:34:35.626Z,22.22
2023-04-21T15:37:03.339Z,22.25
2023-04-21T15:39:31.062Z,22.25
2023-04-21T15:41:59.377Z,22.31
2023-04-21T15:44:27.290Z,22.31
2023-04-21T15:46:55.127Z,22.34
2023-04-21T15:49:25.726Z,22.33
2023-04-21T15:51:53.866Z,22.31
2023-04-21T15:54:21.672Z,22.27
2023-04-21T15:56:49.735Z,22.18
2023-04-21T15:59:17.426Z,22.05
2023-04-21T16:01:45.302Z,21.94
2023-04-21T16:04:13.437Z,21.80
2023-04-21T16:06:41.571Z,21.71
2023-04-21T16:09:10.831Z,21.61
2023-04-21T16:11:38.639Z,21.58
2023-04-21T16:14:08.246Z,21.53
2023-04-21T16:16:37.349Z,21.43
2023-04-21T16:19:05.299Z,21.20
2023-04-21T16:21:33.011Z,20.94
2023-04-21T16:24:00.868Z,20.75
2023-04-21T16:26:28.976Z,20.55
2023-04-21T16:28:57.875Z,20.41
2023-04-21T16:31:25.919Z,20.31
2023-04-21T16:34:00.300Z,20.24
2023-04-21T16:36:28.858Z,20.20
2023-04-21T16:38:56.729Z,20.16
2023-04-21T16:41:25.504Z,20.12
2023-04-21T16:43:53.555Z,20.07
2023-04-21T16:46:21.971Z,20.05
2023-04-21T16:48:49.869Z,19.97
2023-04-21T16:51:17.936Z,20.04
2023-04-21T16:53:45.765Z,20.04
2023-04-21T16:56:14.756Z,20.03
2023-04-21T16:58:42.506Z,20.04
2023-04-21T17:01:10.297Z,20.03
2023-04-21T17:03:39.091Z,19.97
2023-04-21T17:06:10.737Z,19.86
2023-04-21T17:08:39.256Z,19.86
2023-04-21T17:11:07.254Z,19.74
2023-04-21T17:13:38.044Z,19.66
2023-04-21T17:16:09.631Z,19.58
2023-04-21T17:18:39.438Z,19.53
2023-04-21T17:21:07.226Z,19.52
2023-04-21T17:23:35.454Z,19.54
2023-04-21T17:26:05.151Z,19.52
2023-04-21T17:28:33.496Z,19.49
2023-04-21T17:31:14.578Z,19.48
2023-04-21T17:33:44.688Z,19.45
2023-04-21T17:36:12.661Z,19.48
2023-04-21T17:38:42.550Z,19.52
2023-04-21T17:41:10.554Z,19.54
2023-04-21T17:43:38.258Z,19.56
2023-04-21T17:46:07.419Z,19.55
2023-04-21T17:48:35.249Z,19.56
2023-04-21T17:51:03.957Z,19.53
2023-04-21T17:53:32.022Z,19.54
2023-04-21T17:56:00.059Z,19.50
2023-04-21T17:58:29.856Z,19.45
2023-04-21T18:00:57.640Z,19.39
2023-04-21T18:03:27.458Z,19.35
2023-04-21T18:05:56.022Z,19.38
2023-04-21T18:08:23.930Z,19.38
2023-04-21T18:10:51.750Z,19.47
2023-04-21T18:13:19.476Z,19.52
2023-04-21T18:15:47.234Z,19.61
2023-04-21T18:18:15.454Z,19.67
2023-04-21T18:20:43.358Z,19.65
2023-04-21T18:23:11.367Z,19.72
2023-04-21T18:25:42.728Z,19.77
2023-04-21T18:28:14.369Z,19.83
2023-04-21T18:30:42.506Z,19.82
2023-04-21T18:33:11.524Z,19.82
2023-04-21T18:35:41.514Z,19.80
2023-04-21T18:38:11.611Z,19.69
2023-04-21T18:40:40.769Z,19.65
2023-04-21T18:43:09.914Z,19.57
2023-04-21T18:45:38.683Z,19.55
2023-04-21T18:48:06.450Z,19.52
2023-04-21T18:50:39.313Z,19.47
2023-04-21T18:53:08.550Z,19.40
2023-04-21T18:55:37.348Z,19.30
2023-04-21T18:58:05.159Z,19.24
2023-04-21T19:00:37.172Z,19.21
2023-04-21T19:03:06.253Z,19.13
2023-04-21T19:05:36.073Z,19.18
2023-04-21T19:08:07.404Z,19.16
2023-04-21T19:10:35.680Z,19.10
2023-04-21T19:13:04.232Z,19.10
2023-04-21T19:15:32.153Z,19.03
2023-04-21T19:17:59.976Z,19.04
2023-04-21T19:20:28.991Z,19.03
2023-04-21T19:22:56.827Z,19.01
2023-04-21T19:25:26.072Z,18.98
2023-04-21T19:27:54.075Z,18.99
2023-04-21T19:30:21.936Z,18.97
2023-04-21T19:32:49.698Z,18.96
2023-04-21T19:35:17.578Z,18.92
2023-04-21T19:37:47.932Z,18.87
2023-04-21T19:40:16.002Z,18.88
2023-04-21T19:42:43.679Z,18.81
2023-04-21T19:45:12.693Z,18.85
2023-04-21T19:47:40.486Z,18.79
2023-04-21T19:50:09.235Z,18.81
2023-04-21T19:52:37.108Z,18.76
2023-04-21T19:55:06.396Z,18.83
2023-04-21T19:57:35.862Z,18.81
2023-04-21T20:00:06.167Z,18.85
2023-04-21T20:02:40.109Z,18.84
2023-04-21T20:05:10.870Z,18.81
2023-04-21T20:07:39.614Z,18.81
2023-04-21T20:10:08.633Z,18.85
2023-04-21T20:12:36.462Z,18.84
2023-04-21T20:15:05.589Z,18.85
2023-04-21T20:17:35.341Z,18.85
2023-04-21T20:20:05.275Z,18.84
2023-04-21T20:22:33.035Z,18.85
2023-04-21T20:25:00.834Z,18.86
2023-04-21T20:27:28.489Z,18.83
2023-04-21T20:29:56.962Z,18.78
2023-04-21T20:32:25.040Z,18.84
2023-04-21T20:34:53.703Z,18.79
2023-04-21T20:37:23.004Z,18.76
2023-04-21T20:39:50.935Z,18.76
2023-04-21T20:42:19.317Z,18.76
2023-04-21T20:44:48.135Z,18.75
2023-04-21T20:47:17.743Z,18.73
2023-04-21T20:49:47.336Z,18.72
2023-04-21T20:52:15.941Z,18.68
2023-04-21T20:54:43.702Z,18.67
2023-04-21T20:57:12.106Z,18.64
2023-04-21T20:59:40.714Z,18.60
2023-04-21T21:02:09.090Z,18.61
2023-04-21T21:04:36.910Z,18.55
2023-04-21T21:07:04.740Z,18.54
2023-04-21T21:09:32.411Z,18.54
2023-04-21T21:12:02.318Z,18.51
2023-04-21T21:14:30.128Z,18.54
2023-04-21T21:16:58.211Z,18.54
2023-04-21T21:19:26.277Z,18.45
2023-04-21T21:21:54.201Z,18.48
2023-04-21T21:24:21.952Z,18.42
2023-04-21T21:26:50.758Z,18.42
2023-04-21T21:29:20.460Z,18.40
2023-04-21T21:31:48.206Z,18.41
2023-04-21T21:34:16.017Z,18.36
2023-04-21T21:36:43.833Z,18.39
2023-04-21T21:39:11.607Z,18.40
2023-04-21T21:41:39.717Z,18.39
2023-04-21T21:44:08.332Z,18.41
2023-04-21T21:46:36.396Z,18.42
2023-04-21T21:49:04.750Z,18.42
2023-04-21T21:51:32.669Z,18.43
2023-04-21T21:54:00.511Z,18.44
2023-04-21T21:56:28.396Z,18.43
2023-04-21T21:58:56.182Z,18.45
2023-04-21T22:01:23.965Z,18.42
2023-04-21T22:03:53.038Z,18.48
2023-04-21T22:06:26.511Z,18.52
2023-04-21T22:08:54.708Z,18.51
2023-04-21T22:11:22.871Z,18.51
2023-04-21T22:13:51.386Z,18.53
2023-04-21T22:16:19.181Z,18.54
2023-04-21T22:18:48.298Z,18.50
2023-04-21T22:21:16.166Z,18.48
2023-04-21T22:23:43.861Z,18.48
2023-04-21T22:26:11.688Z,18.52
2023-04-21T22:28:41.629Z,18.52
2023-04-21T22:31:10.464Z,18.53
2023-04-21T22:33:38.312Z,18.49
2023-04-21T22:36:08.535Z,18.49
2023-04-21T22:38:38.502Z,18.43
2023-04-21T22:41:07.182Z,18.39
2023-04-21T22:43:35.052Z,18.38
2023-04-21T22:46:03.117Z,18.35
2023-04-21T22:48:32.624Z,18.30
2023-04-21T22:51:01.435Z,18.32
2023-04-21T22:53:29.444Z,18.30
2023-04-21T22:55:57.328Z,18.29
2023-04-21T22:58:26.187Z,18.28
2023-04-21T23:00:54.133Z,18.26
2023-04-21T23:03:23.169Z,18.24
2023-04-21T23:05:51.072Z,18.19
2023-04-21T23:08:18.820Z,18.14
2023-04-21T23:10:47.428Z,18.17
2023-04-21T23:13:15.164Z,18.19
2023-04-21T23:15:42.911Z,18.14
2023-04-21T23:18:10.713Z,18.15
2023-04-21T23:20:38.583Z,18.12
2023-04-21T23:23:06.544Z,18.05
2023-04-21T23:25:34.325Z,18.07
2023-04-21T23:28:02.088Z,18.03
2023-04-21T23:30:29.997Z,17.98
2023-04-21T23:32:58.056Z,17.91
2023-04-21T23:35:26.159Z,17.90
2023-04-21T23:37:56.044Z,17.84
2023-04-21T23:40:23.994Z,17.79
2023-04-21T23:42:51.733Z,17.86
2023-04-21T23:45:19.826Z,17.84
2023-04-21T23:47:47.561Z,17.82
2023-04-21T23:50:15.367Z,17.81
2023-04-21T23:52:44.143Z,17.79
2023-04-21T23:55:12.932Z,17.79
2023-04-21T23:57:40.685Z,17.77
